sensor_id;sensor_type;location;lat;lon;timestamp;P1;durP1;ratioP1;P2;durP2;ratioP2
68886;SDS011;55925;51.764;6.402;2023-03-12T00:00:18;8.05;;;3.17;;
68886;SDS011;55925;51.764;6.402;2023-03-12T00:02:44;11.23;;;3.65;;
68886;SDS011;55925;51.764;6.402;2023-03-12T00:05:10;9.32;;;3.80;;
68886;SDS011;55925;51.764;6.402;2023-03-12T00:07:36;8.35;;;3.90;;
68886;SDS011;55925;51.764;6.402;2023-03-12T00:10:04;7.20;;;3.55;;
68886;SDS011;55925;51.764;6.402;2023-03-12T00:12:30;8.20;;;3.17;;
68886;SDS011;55925;51.764;6.402;2023-03-12T00:14:56;8.18;;;3.15;;
68886;SDS011;55925;51.764;6.402;2023-03-12T00:17:22;7.47;;;3.65;;
68886;SDS011;55925;51.764;6.402;2023-03-12T00:19:51;12.05;;;3.42;;
68886;SDS011;55925;51.764;6.402;2023-03-12T00:22:18;8.43;;;3.17;;
68886;SDS011;55925;51.764;6.402;2023-03-12T00:24:56;7.70;;;3.53;;
68886;SDS011;55925;51.764;6.402;2023-03-12T00:27:23;8.43;;;3.65;;
68886;SDS011;55925;51.764;6.402;2023-03-12T00:29:49;9.23;;;3.45;;
68886;SDS011;55925;51.764;6.402;2023-03-12T00:32:15;6.00;;;3.20;;
68886;SDS011;55925;51.764;6.402;2023-03-12T00:34:41;9.27;;;3.78;;
68886;SDS011;55925;51.764;6.402;2023-03-12T00:37:07;10.20;;;3.47;;
68886;SDS011;55925;51.764;6.402;2023-03-12T00:39:33;9.30;;;3.53;;
68886;SDS011;55925;51.764;6.402;2023-03-12T00:41:59;8.55;;;3.67;;
68886;SDS011;55925;51.764;6.402;2023-03-12T00:44:25;9.65;;;3.42;;
68886;SDS011;55925;51.764;6.402;2023-03-12T00:46:51;9.85;;;3.53;;
68886;SDS011;55925;51.764;6.402;2023-03-12T00:49:17;8.70;;;2.83;;
68886;SDS011;55925;51.764;6.402;2023-03-12T00:51:44;6.82;;;2.70;;
68886;SDS011;55925;51.764;6.402;2023-03-12T00:54:10;7.03;;;2.60;;
68886;SDS011;55925;51.764;6.402;2023-03-12T00:56:36;8.30;;;3.63;;
68886;SDS011;55925;51.764;6.402;2023-03-12T00:59:02;6.45;;;3.28;;
68886;SDS011;55925;51.764;6.402;2023-03-12T01:01:28;5.90;;;3.50;;
68886;SDS011;55925;51.764;6.402;2023-03-12T01:03:54;7.03;;;3.42;;
68886;SDS011;55925;51.764;6.402;2023-03-12T01:06:21;7.72;;;3.60;;
68886;SDS011;55925;51.764;6.402;2023-03-12T01:08:47;9.73;;;3.80;;
68886;SDS011;55925;51.764;6.402;2023-03-12T01:11:17;8.15;;;3.90;;
68886;SDS011;55925;51.764;6.402;2023-03-12T01:13:43;11.27;;;4.40;;
68886;SDS011;55925;51.764;6.402;2023-03-12T01:16:09;8.23;;;4.20;;
68886;SDS011;55925;51.764;6.402;2023-03-12T01:18:35;9.50;;;4.22;;
68886;SDS011;55925;51.764;6.402;2023-03-12T01:21:01;7.93;;;4.65;;
68886;SDS011;55925;51.764;6.402;2023-03-12T01:23:28;10.75;;;5.05;;
68886;SDS011;55925;51.764;6.402;2023-03-12T01:25:54;9.35;;;4.80;;
68886;SDS011;55925;51.764;6.402;2023-03-12T01:28:20;9.85;;;4.55;;
68886;SDS011;55925;51.764;6.402;2023-03-12T01:30:47;9.32;;;4.38;;
68886;SDS011;55925;51.764;6.402;2023-03-12T01:33:13;9.95;;;5.20;;
68886;SDS011;55925;51.764;6.402;2023-03-12T01:35:39;9.00;;;4.90;;
68886;SDS011;55925;51.764;6.402;2023-03-12T01:38:06;10.55;;;4.70;;
68886;SDS011;55925;51.764;6.402;2023-03-12T01:40:33;9.63;;;4.75;;
68886;SDS011;55925;51.764;6.402;2023-03-12T01:43:20;10.63;;;4.60;;
68886;SDS011;55925;51.764;6.402;2023-03-12T01:45:50;7.78;;;4.45;;
68886;SDS011;55925;51.764;6.402;2023-03-12T01:48:23;10.63;;;4.35;;
68886;SDS011;55925;51.764;6.402;2023-03-12T01:50:50;11.85;;;4.45;;
68886;SDS011;55925;51.764;6.402;2023-03-12T01:53:16;10.73;;;4.93;;
68886;SDS011;55925;51.764;6.402;2023-03-12T01:55:42;11.02;;;4.72;;
68886;SDS011;55925;51.764;6.402;2023-03-12T01:58:08;10.48;;;4.38;;
68886;SDS011;55925;51.764;6.402;2023-03-12T02:00:34;7.63;;;4.10;;
68886;SDS011;55925;51.764;6.402;2023-03-12T02:03:05;9.02;;;3.63;;
68886;SDS011;55925;51.764;6.402;2023-03-12T02:05:36;8.55;;;3.90;;
68886;SDS011;55925;51.764;6.402;2023-03-12T02:08:07;5.88;;;3.03;;
68886;SDS011;55925;51.764;6.402;2023-03-12T02:10:34;6.95;;;3.30;;
68886;SDS011;55925;51.764;6.402;2023-03-12T02:13:00;7.82;;;3.05;;
68886;SDS011;55925;51.764;6.402;2023-03-12T02:15:26;6.47;;;3.58;;
68886;SDS011;55925;51.764;6.402;2023-03-12T02:17:52;9.15;;;3.22;;
68886;SDS011;55925;51.764;6.402;2023-03-12T02:20:22;6.40;;;3.50;;
68886;SDS011;55925;51.764;6.402;2023-03-12T02:22:55;7.38;;;3.67;;
68886;SDS011;55925;51.764;6.402;2023-03-12T02:25:37;8.05;;;3.85;;
68886;SDS011;55925;51.764;6.402;2023-03-12T02:28:06;9.05;;;3.80;;
68886;SDS011;55925;51.764;6.402;2023-03-12T02:30:32;8.90;;;3.83;;
68886;SDS011;55925;51.764;6.402;2023-03-12T02:32:59;7.90;;;3.28;;
68886;SDS011;55925;51.764;6.402;2023-03-12T02:35:26;8.05;;;3.92;;
68886;SDS011;55925;51.764;6.402;2023-03-12T02:37:53;6.80;;;4.03;;
68886;SDS011;55925;51.764;6.402;2023-03-12T02:42:54;10.50;;;4.53;;
68886;SDS011;55925;51.764;6.402;2023-03-12T02:45:21;13.00;;;5.22;;
68886;SDS011;55925;51.764;6.402;2023-03-12T02:47:47;9.35;;;4.65;;
68886;SDS011;55925;51.764;6.402;2023-03-12T02:50:13;11.63;;;5.97;;
68886;SDS011;55925;51.764;6.402;2023-03-12T02:52:39;10.60;;;5.50;;
68886;SDS011;55925;51.764;6.402;2023-03-12T02:55:05;11.02;;;5.35;;
68886;SDS011;55925;51.764;6.402;2023-03-12T02:57:31;10.18;;;5.45;;
68886;SDS011;55925;51.764;6.402;2023-03-12T03:00:01;12.20;;;5.70;;
68886;SDS011;55925;51.764;6.402;2023-03-12T03:02:28;10.18;;;5.30;;
68886;SDS011;55925;51.764;6.402;2023-03-12T03:04:54;11.70;;;5.88;;
68886;SDS011;55925;51.764;6.402;2023-03-12T03:07:20;10.77;;;5.72;;
68886;SDS011;55925;51.764;6.402;2023-03-12T03:09:46;12.75;;;6.10;;
68886;SDS011;55925;51.764;6.402;2023-03-12T03:12:12;11.18;;;5.88;;
68886;SDS011;55925;51.764;6.402;2023-03-12T03:14:38;10.73;;;5.40;;
68886;SDS011;55925;51.764;6.402;2023-03-12T03:17:04;9.88;;;5.72;;
68886;SDS011;55925;51.764;6.402;2023-03-12T03:19:30;10.32;;;5.60;;
68886;SDS011;55925;51.764;6.402;2023-03-12T03:21:56;10.40;;;5.47;;
68886;SDS011;55925;51.764;6.402;2023-03-12T03:24:22;11.05;;;6.32;;
68886;SDS011;55925;51.764;6.402;2023-03-12T03:26:48;12.30;;;6.28;;
68886;SDS011;55925;51.764;6.402;2023-03-12T03:29:14;12.88;;;5.40;;
68886;SDS011;55925;51.764;6.402;2023-03-12T03:31:41;12.27;;;5.53;;
68886;SDS011;55925;51.764;6.402;2023-03-12T03:34:07;11.20;;;5.15;;
68886;SDS011;55925;51.764;6.402;2023-03-12T03:36:33;11.02;;;5.57;;
68886;SDS011;55925;51.764;6.402;2023-03-12T03:38:59;9.88;;;5.18;;
68886;SDS011;55925;51.764;6.402;2023-03-12T03:41:25;10.65;;;5.50;;
68886;SDS011;55925;51.764;6.402;2023-03-12T03:43:54;11.57;;;5.07;;
68886;SDS011;55925;51.764;6.402;2023-03-12T03:46:20;12.70;;;6.22;;
68886;SDS011;55925;51.764;6.402;2023-03-12T03:48:46;9.52;;;5.40;;
68886;SDS011;55925;51.764;6.402;2023-03-12T03:51:12;9.10;;;4.80;;
68886;SDS011;55925;51.764;6.402;2023-03-12T03:53:38;10.68;;;5.22;;
68886;SDS011;55925;51.764;6.402;2023-03-12T03:56:08;8.48;;;5.03;;
68886;SDS011;55925;51.764;6.402;2023-03-12T03:58:34;13.75;;;5.53;;
68886;SDS011;55925;51.764;6.402;2023-03-12T04:01:00;13.93;;;5.53;;
68886;SDS011;55925;51.764;6.402;2023-03-12T04:03:26;9.30;;;5.28;;
68886;SDS011;55925;51.764;6.402;2023-03-12T04:05:53;11.88;;;5.00;;
68886;SDS011;55925;51.764;6.402;2023-03-12T04:08:19;9.18;;;4.88;;
68886;SDS011;55925;51.764;6.402;2023-03-12T04:10:45;12.60;;;5.47;;
68886;SDS011;55925;51.764;6.402;2023-03-12T04:13:11;9.55;;;4.85;;
68886;SDS011;55925;51.764;6.402;2023-03-12T04:15:37;8.57;;;4.82;;
68886;SDS011;55925;51.764;6.402;2023-03-12T04:18:03;10.25;;;4.82;;
68886;SDS011;55925;51.764;6.402;2023-03-12T04:20:29;10.43;;;5.50;;
68886;SDS011;55925;51.764;6.402;2023-03-12T04:22:55;9.65;;;5.43;;
68886;SDS011;55925;51.764;6.402;2023-03-12T04:25:22;10.15;;;5.07;;
68886;SDS011;55925;51.764;6.402;2023-03-12T04:27:48;8.02;;;4.85;;
68886;SDS011;55925;51.764;6.402;2023-03-12T04:30:14;13.35;;;6.15;;
68886;SDS011;55925;51.764;6.402;2023-03-12T04:32:40;9.38;;;4.70;;
68886;SDS011;55925;51.764;6.402;2023-03-12T04:35:06;8.68;;;4.80;;
68886;SDS011;55925;51.764;6.402;2023-03-12T04:37:32;14.63;;;5.25;;
68886;SDS011;55925;51.764;6.402;2023-03-12T04:39:59;12.27;;;5.50;;
68886;SDS011;55925;51.764;6.402;2023-03-12T04:42:25;8.82;;;4.90;;
68886;SDS011;55925;51.764;6.402;2023-03-12T04:44:51;9.95;;;4.82;;
68886;SDS011;55925;51.764;6.402;2023-03-12T04:47:17;10.90;;;5.63;;
68886;SDS011;55925;51.764;6.402;2023-03-12T04:49:43;10.73;;;5.07;;
68886;SDS011;55925;51.764;6.402;2023-03-12T04:52:09;11.38;;;4.95;;
68886;SDS011;55925;51.764;6.402;2023-03-12T04:54:35;10.77;;;5.00;;
68886;SDS011;55925;51.764;6.402;2023-03-12T04:57:01;11.43;;;5.15;;
68886;SDS011;55925;51.764;6.402;2023-03-12T04:59:27;10.82;;;5.32;;
68886;SDS011;55925;51.764;6.402;2023-03-12T05:01:53;12.23;;;5.97;;
68886;SDS011;55925;51.764;6.402;2023-03-12T05:04:19;14.18;;;5.35;;
68886;SDS011;55925;51.764;6.402;2023-03-12T05:06:45;10.32;;;6.00;;
68886;SDS011;55925;51.764;6.402;2023-03-12T05:09:11;11.45;;;5.85;;
68886;SDS011;55925;51.764;6.402;2023-03-12T05:11:37;10.07;;;5.13;;
68886;SDS011;55925;51.764;6.402;2023-03-12T05:14:03;13.75;;;5.63;;
68886;SDS011;55925;51.764;6.402;2023-03-12T05:16:29;10.15;;;5.15;;
68886;SDS011;55925;51.764;6.402;2023-03-12T05:18:55;9.43;;;5.30;;
68886;SDS011;55925;51.764;6.402;2023-03-12T05:21:21;11.18;;;5.32;;
68886;SDS011;55925;51.764;6.402;2023-03-12T05:23:47;8.82;;;5.15;;
68886;SDS011;55925;51.764;6.402;2023-03-12T05:28:42;8.85;;;4.40;;
68886;SDS011;55925;51.764;6.402;2023-03-12T05:31:09;9.45;;;4.88;;
68886;SDS011;55925;51.764;6.402;2023-03-12T05:33:35;11.02;;;5.32;;
68886;SDS011;55925;51.764;6.402;2023-03-12T05:36:01;9.93;;;5.05;;
68886;SDS011;55925;51.764;6.402;2023-03-12T05:38:27;9.27;;;4.70;;
68886;SDS011;55925;51.764;6.402;2023-03-12T05:40:54;11.43;;;4.55;;
68886;SDS011;55925;51.764;6.402;2023-03-12T05:43:21;12.00;;;5.05;;
68886;SDS011;55925;51.764;6.402;2023-03-12T05:45:47;8.50;;;4.13;;
68886;SDS011;55925;51.764;6.402;2023-03-12T05:48:13;8.32;;;3.80;;
68886;SDS011;55925;51.764;6.402;2023-03-12T05:50:40;9.82;;;4.40;;
68886;SDS011;55925;51.764;6.402;2023-03-12T05:53:06;10.32;;;4.30;;
68886;SDS011;55925;51.764;6.402;2023-03-12T05:55:36;10.40;;;4.28;;
68886;SDS011;55925;51.764;6.402;2023-03-12T05:58:02;10.05;;;3.70;;
68886;SDS011;55925;51.764;6.402;2023-03-12T06:00:28;10.88;;;4.47;;
68886;SDS011;55925;51.764;6.402;2023-03-12T06:02:55;8.77;;;4.30;;
68886;SDS011;55925;51.764;6.402;2023-03-12T06:05:21;8.48;;;3.88;;
68886;SDS011;55925;51.764;6.402;2023-03-12T06:07:47;9.38;;;4.03;;
68886;SDS011;55925;51.764;6.402;2023-03-12T06:10:13;7.50;;;3.42;;
68886;SDS011;55925;51.764;6.402;2023-03-12T06:12:39;7.57;;;3.50;;
68886;SDS011;55925;51.764;6.402;2023-03-12T06:15:05;8.27;;;3.97;;
68886;SDS011;55925;51.764;6.402;2023-03-12T06:17:31;8.02;;;4.38;;
68886;SDS011;55925;51.764;6.402;2023-03-12T06:19:57;9.85;;;3.83;;
68886;SDS011;55925;51.764;6.402;2023-03-12T06:22:24;10.13;;;4.40;;
68886;SDS011;55925;51.764;6.402;2023-03-12T06:24:50;7.82;;;3.95;;
68886;SDS011;55925;51.764;6.402;2023-03-12T06:27:16;11.43;;;4.95;;
68886;SDS011;55925;51.764;6.402;2023-03-12T06:29:42;7.47;;;4.07;;
68886;SDS011;55925;51.764;6.402;2023-03-12T06:32:11;9.82;;;4.20;;
68886;SDS011;55925;51.764;6.402;2023-03-12T06:34:37;9.60;;;4.32;;
68886;SDS011;55925;51.764;6.402;2023-03-12T06:37:03;8.43;;;4.53;;
68886;SDS011;55925;51.764;6.402;2023-03-12T06:39:29;9.85;;;4.13;;
68886;SDS011;55925;51.764;6.402;2023-03-12T06:41:55;8.30;;;5.50;;
68886;SDS011;55925;51.764;6.402;2023-03-12T06:44:21;7.75;;;4.13;;
68886;SDS011;55925;51.764;6.402;2023-03-12T06:46:47;8.63;;;4.20;;
68886;SDS011;55925;51.764;6.402;2023-03-12T06:49:13;10.18;;;4.75;;
68886;SDS011;55925;51.764;6.402;2023-03-12T06:51:39;9.48;;;4.57;;
68886;SDS011;55925;51.764;6.402;2023-03-12T06:54:05;8.45;;;3.65;;
68886;SDS011;55925;51.764;6.402;2023-03-12T06:56:31;10.07;;;4.10;;
68886;SDS011;55925;51.764;6.402;2023-03-12T06:58:57;12.50;;;4.75;;
68886;SDS011;55925;51.764;6.402;2023-03-12T07:01:24;10.43;;;4.55;;
68886;SDS011;55925;51.764;6.402;2023-03-12T07:03:50;9.77;;;4.18;;
68886;SDS011;55925;51.764;6.402;2023-03-12T07:06:20;8.05;;;4.10;;
68886;SDS011;55925;51.764;6.402;2023-03-12T07:08:46;12.02;;;5.13;;
68886;SDS011;55925;51.764;6.402;2023-03-12T07:11:13;9.13;;;4.20;;
68886;SDS011;55925;51.764;6.402;2023-03-12T07:13:39;12.38;;;4.65;;
68886;SDS011;55925;51.764;6.402;2023-03-12T07:16:05;10.95;;;4.22;;
68886;SDS011;55925;51.764;6.402;2023-03-12T07:18:32;12.93;;;4.97;;
68886;SDS011;55925;51.764;6.402;2023-03-12T07:20:58;12.57;;;4.82;;
68886;SDS011;55925;51.764;6.402;2023-03-12T07:23:24;8.13;;;5.13;;
68886;SDS011;55925;51.764;6.402;2023-03-12T07:25:50;11.52;;;4.68;;
68886;SDS011;55925;51.764;6.402;2023-03-12T07:28:17;10.85;;;5.55;;
68886;SDS011;55925;51.764;6.402;2023-03-12T07:30:43;10.43;;;4.60;;
68886;SDS011;55925;51.764;6.402;2023-03-12T07:33:14;9.52;;;4.15;;
68886;SDS011;55925;51.764;6.402;2023-03-12T07:35:41;10.95;;;5.30;;
68886;SDS011;55925;51.764;6.402;2023-03-12T07:38:07;10.38;;;5.05;;
68886;SDS011;55925;51.764;6.402;2023-03-12T07:40:35;14.00;;;5.15;;
68886;SDS011;55925;51.764;6.402;2023-03-12T07:43:01;10.32;;;5.15;;
68886;SDS011;55925;51.764;6.402;2023-03-12T07:45:28;9.88;;;5.32;;
68886;SDS011;55925;51.764;6.402;2023-03-12T07:47:54;12.23;;;5.25;;
68886;SDS011;55925;51.764;6.402;2023-03-12T07:50:20;11.25;;;5.47;;
68886;SDS011;55925;51.764;6.402;2023-03-12T07:52:46;10.38;;;5.78;;
68886;SDS011;55925;51.764;6.402;2023-03-12T07:55:12;16.35;;;6.03;;
68886;SDS011;55925;51.764;6.402;2023-03-12T07:57:38;11.05;;;5.10;;
68886;SDS011;55925;51.764;6.402;2023-03-12T08:00:04;9.50;;;4.90;;
68886;SDS011;55925;51.764;6.402;2023-03-12T08:02:32;12.32;;;5.20;;
68886;SDS011;55925;51.764;6.402;2023-03-12T08:04:58;10.90;;;4.72;;
68886;SDS011;55925;51.764;6.402;2023-03-12T08:07:24;12.32;;;5.82;;
68886;SDS011;55925;51.764;6.402;2023-03-12T08:09:56;11.73;;;5.07;;
68886;SDS011;55925;51.764;6.402;2023-03-12T08:12:22;9.25;;;5.35;;
68886;SDS011;55925;51.764;6.402;2023-03-12T08:14:48;10.25;;;5.75;;
68886;SDS011;55925;51.764;6.402;2023-03-12T08:17:14;13.68;;;5.75;;
68886;SDS011;55925;51.764;6.402;2023-03-12T08:19:40;12.20;;;5.15;;
68886;SDS011;55925;51.764;6.402;2023-03-12T08:22:06;15.55;;;6.53;;
68886;SDS011;55925;51.764;6.402;2023-03-12T08:24:32;11.02;;;5.45;;
68886;SDS011;55925;51.764;6.402;2023-03-12T08:26:59;11.68;;;5.63;;
68886;SDS011;55925;51.764;6.402;2023-03-12T08:29:25;17.05;;;6.57;;
68886;SDS011;55925;51.764;6.402;2023-03-12T08:31:51;17.13;;;6.18;;
68886;SDS011;55925;51.764;6.402;2023-03-12T08:34:17;10.55;;;5.93;;
68886;SDS011;55925;51.764;6.402;2023-03-12T08:36:43;14.38;;;6.55;;
68886;SDS011;55925;51.764;6.402;2023-03-12T08:39:09;14.32;;;6.93;;
68886;SDS011;55925;51.764;6.402;2023-03-12T08:41:35;17.30;;;7.32;;
68886;SDS011;55925;51.764;6.402;2023-03-12T08:44:01;12.18;;;6.03;;
68886;SDS011;55925;51.764;6.402;2023-03-12T08:46:27;15.18;;;6.95;;
68886;SDS011;55925;51.764;6.402;2023-03-12T08:48:53;15.13;;;7.13;;
68886;SDS011;55925;51.764;6.402;2023-03-12T08:51:20;17.80;;;6.93;;
68886;SDS011;55925;51.764;6.402;2023-03-12T08:53:46;13.43;;;7.25;;
68886;SDS011;55925;51.764;6.402;2023-03-12T08:56:12;17.63;;;7.90;;
68886;SDS011;55925;51.764;6.402;2023-03-12T08:58:38;16.50;;;7.47;;
68886;SDS011;55925;51.764;6.402;2023-03-12T09:01:10;21.73;;;7.55;;
68886;SDS011;55925;51.764;6.402;2023-03-12T09:03:37;16.20;;;6.75;;
68886;SDS011;55925;51.764;6.402;2023-03-12T09:06:06;15.07;;;6.20;;
68886;SDS011;55925;51.764;6.402;2023-03-12T09:11:02;15.50;;;7.03;;
68886;SDS011;55925;51.764;6.402;2023-03-12T09:13:29;16.23;;;7.63;;
68886;SDS011;55925;51.764;6.402;2023-03-12T09:15:58;15.27;;;7.03;;
68886;SDS011;55925;51.764;6.402;2023-03-12T09:18:25;11.93;;;6.20;;
68886;SDS011;55925;51.764;6.402;2023-03-12T09:20:51;14.82;;;6.78;;
68886;SDS011;55925;51.764;6.402;2023-03-12T09:23:17;11.98;;;6.45;;
68886;SDS011;55925;51.764;6.402;2023-03-12T09:25:46;18.00;;;7.55;;
68886;SDS011;55925;51.764;6.402;2023-03-12T09:28:12;14.60;;;6.60;;
68886;SDS011;55925;51.764;6.402;2023-03-12T09:30:39;14.30;;;6.72;;
68886;SDS011;55925;51.764;6.402;2023-03-12T09:33:05;12.18;;;6.50;;
68886;SDS011;55925;51.764;6.402;2023-03-12T09:35:31;12.25;;;6.57;;
68886;SDS011;55925;51.764;6.402;2023-03-12T09:37:57;13.90;;;7.47;;
68886;SDS011;55925;51.764;6.402;2023-03-12T09:40:24;13.77;;;7.10;;
68886;SDS011;55925;51.764;6.402;2023-03-12T09:43:01;15.25;;;7.25;;
68886;SDS011;55925;51.764;6.402;2023-03-12T09:45:38;13.00;;;6.95;;
68886;SDS011;55925;51.764;6.402;2023-03-12T09:48:05;11.57;;;6.47;;
68886;SDS011;55925;51.764;6.402;2023-03-12T09:50:33;14.25;;;7.75;;
68886;SDS011;55925;51.764;6.402;2023-03-12T09:55:36;15.25;;;7.65;;
68886;SDS011;55925;51.764;6.402;2023-03-12T09:58:03;13.00;;;6.55;;
68886;SDS011;55925;51.764;6.402;2023-03-12T10:00:30;16.02;;;7.35;;
68886;SDS011;55925;51.764;6.402;2023-03-12T10:08:03;16.48;;;7.35;;
68886;SDS011;55925;51.764;6.402;2023-03-12T10:18:20;14.75;;;7.38;;
68886;SDS011;55925;51.764;6.402;2023-03-12T10:20:54;15.77;;;7.28;;
68886;SDS011;55925;51.764;6.402;2023-03-12T10:25:59;18.17;;;8.20;;
68886;SDS011;55925;51.764;6.402;2023-03-12T10:28:44;15.90;;;7.78;;
68886;SDS011;55925;51.764;6.402;2023-03-12T10:33:43;16.98;;;7.80;;
68886;SDS011;55925;51.764;6.402;2023-03-12T10:36:18;16.33;;;8.02;;
68886;SDS011;55925;51.764;6.402;2023-03-12T10:38:44;16.90;;;8.30;;
68886;SDS011;55925;51.764;6.402;2023-03-12T10:41:31;16.95;;;7.97;;
68886;SDS011;55925;51.764;6.402;2023-03-12T10:43:59;13.63;;;7.55;;
68886;SDS011;55925;51.764;6.402;2023-03-12T10:49:43;19.48;;;8.07;;
68886;SDS011;55925;51.764;6.402;2023-03-12T10:54:21;18.58;;;9.23;;
68886;SDS011;55925;51.764;6.402;2023-03-12T10:56:50;19.13;;;8.90;;
68886;SDS011;55925;51.764;6.402;2023-03-12T10:59:20;19.60;;;9.15;;
68886;SDS011;55925;51.764;6.402;2023-03-12T11:01:47;19.58;;;8.65;;
68886;SDS011;55925;51.764;6.402;2023-03-12T11:04:18;17.35;;;9.00;;
68886;SDS011;55925;51.764;6.402;2023-03-12T11:09:29;17.75;;;9.18;;
68886;SDS011;55925;51.764;6.402;2023-03-12T11:11:55;20.58;;;10.20;;
68886;SDS011;55925;51.764;6.402;2023-03-12T11:14:22;20.45;;;8.88;;
68886;SDS011;55925;51.764;6.402;2023-03-12T11:16:49;18.02;;;9.02;;
68886;SDS011;55925;51.764;6.402;2023-03-12T11:19:28;18.75;;;9.13;;
68886;SDS011;55925;51.764;6.402;2023-03-12T11:21:56;16.33;;;8.93;;
68886;SDS011;55925;51.764;6.402;2023-03-12T11:24:22;16.40;;;9.23;;
68886;SDS011;55925;51.764;6.402;2023-03-12T11:26:49;18.05;;;8.80;;
68886;SDS011;55925;51.764;6.402;2023-03-12T11:31:47;17.00;;;8.25;;
68886;SDS011;55925;51.764;6.402;2023-03-12T11:34:23;19.05;;;9.20;;
68886;SDS011;55925;51.764;6.402;2023-03-12T11:42:21;19.63;;;9.70;;
68886;SDS011;55925;51.764;6.402;2023-03-12T11:47:53;21.17;;;9.35;;
68886;SDS011;55925;51.764;6.402;2023-03-12T11:50:25;23.20;;;9.90;;
68886;SDS011;55925;51.764;6.402;2023-03-12T11:57:54;25.48;;;10.38;;
68886;SDS011;55925;51.764;6.402;2023-03-12T12:00:25;20.63;;;9.75;;
68886;SDS011;55925;51.764;6.402;2023-03-12T12:10:40;24.20;;;10.80;;
68886;SDS011;55925;51.764;6.402;2023-03-12T12:21:20;21.05;;;10.43;;
68886;SDS011;55925;51.764;6.402;2023-03-12T12:34:34;21.83;;;9.45;;
68886;SDS011;55925;51.764;6.402;2023-03-12T12:36:34;23.58;;;9.50;;
68886;SDS011;55925;51.764;6.402;2023-03-12T12:39:08;21.23;;;9.68;;
68886;SDS011;55925;51.764;6.402;2023-03-12T12:41:38;22.88;;;8.38;;
68886;SDS011;55925;51.764;6.402;2023-03-12T12:44:10;20.30;;;10.02;;
68886;SDS011;55925;51.764;6.402;2023-03-12T12:46:38;21.50;;;9.50;;
68886;SDS011;55925;51.764;6.402;2023-03-12T12:49:08;22.50;;;9.15;;
68886;SDS011;55925;51.764;6.402;2023-03-12T12:51:36;21.98;;;9.73;;
68886;SDS011;55925;51.764;6.402;2023-03-12T13:00:09;23.88;;;8.98;;
68886;SDS011;55925;51.764;6.402;2023-03-12T13:02:31;20.30;;;8.38;;
68886;SDS011;55925;51.764;6.402;2023-03-12T13:04:58;22.83;;;9.02;;
68886;SDS011;55925;51.764;6.402;2023-03-12T13:09:52;19.17;;;8.15;;
68886;SDS011;55925;51.764;6.402;2023-03-12T13:15:00;20.13;;;7.65;;
68886;SDS011;55925;51.764;6.402;2023-03-12T13:17:34;29.10;;;8.35;;
68886;SDS011;55925;51.764;6.402;2023-03-12T13:30:45;24.30;;;8.10;;
68886;SDS011;55925;51.764;6.402;2023-03-12T13:33:12;27.75;;;7.97;;
68886;SDS011;55925;51.764;6.402;2023-03-12T13:35:39;22.42;;;7.55;;
68886;SDS011;55925;51.764;6.402;2023-03-12T13:38:17;22.17;;;6.70;;
68886;SDS011;55925;51.764;6.402;2023-03-12T13:40:58;20.83;;;6.20;;
68886;SDS011;55925;51.764;6.402;2023-03-12T13:43:30;19.92;;;7.18;;
68886;SDS011;55925;51.764;6.402;2023-03-12T13:48:44;23.83;;;7.70;;
68886;SDS011;55925;51.764;6.402;2023-03-12T13:51:14;19.95;;;7.07;;
68886;SDS011;55925;51.764;6.402;2023-03-12T13:53:41;23.95;;;7.50;;
68886;SDS011;55925;51.764;6.402;2023-03-12T13:56:13;18.35;;;6.78;;
68886;SDS011;55925;51.764;6.402;2023-03-12T13:58:40;25.65;;;8.02;;
68886;SDS011;55925;51.764;6.402;2023-03-12T14:01:07;20.80;;;7.35;;
68886;SDS011;55925;51.764;6.402;2023-03-12T14:03:38;26.20;;;8.60;;
68886;SDS011;55925;51.764;6.402;2023-03-12T14:12:01;22.90;;;8.82;;
68886;SDS011;55925;51.764;6.402;2023-03-12T14:16:45;28.70;;;9.40;;
68886;SDS011;55925;51.764;6.402;2023-03-12T14:19:13;30.80;;;9.32;;
68886;SDS011;55925;51.764;6.402;2023-03-12T14:21:41;23.27;;;10.18;;
68886;SDS011;55925;51.764;6.402;2023-03-12T14:24:19;30.42;;;10.63;;
68886;SDS011;55925;51.764;6.402;2023-03-12T14:26:47;25.83;;;9.40;;
68886;SDS011;55925;51.764;6.402;2023-03-12T14:31:39;26.98;;;9.45;;
68886;SDS011;55925;51.764;6.402;2023-03-12T14:36:45;25.92;;;8.27;;
68886;SDS011;55925;51.764;6.402;2023-03-12T14:39:20;28.95;;;8.57;;
68886;SDS011;55925;51.764;6.402;2023-03-12T14:41:54;20.08;;;7.80;;
68886;SDS011;55925;51.764;6.402;2023-03-12T14:44:22;21.50;;;5.90;;
68886;SDS011;55925;51.764;6.402;2023-03-12T14:47:22;17.65;;;5.10;;
68886;SDS011;55925;51.764;6.402;2023-03-12T14:49:42;19.70;;;5.85;;
68886;SDS011;55925;51.764;6.402;2023-03-12T14:52:10;23.65;;;5.70;;
68886;SDS011;55925;51.764;6.402;2023-03-12T14:54:36;13.38;;;4.90;;
68886;SDS011;55925;51.764;6.402;2023-03-12T14:57:03;26.42;;;5.30;;
68886;SDS011;55925;51.764;6.402;2023-03-12T14:59:30;16.90;;;5.05;;
68886;SDS011;55925;51.764;6.402;2023-03-12T15:01:58;16.52;;;5.20;;
68886;SDS011;55925;51.764;6.402;2023-03-12T15:04:24;21.45;;;5.70;;
68886;SDS011;55925;51.764;6.402;2023-03-12T15:06:52;19.67;;;4.57;;
68886;SDS011;55925;51.764;6.402;2023-03-12T15:09:25;19.23;;;4.50;;
68886;SDS011;55925;51.764;6.402;2023-03-12T15:11:55;21.15;;;6.22;;
68886;SDS011;55925;51.764;6.402;2023-03-12T15:14:23;17.95;;;5.13;;
68886;SDS011;55925;51.764;6.402;2023-03-12T15:16:50;18.48;;;4.53;;
68886;SDS011;55925;51.764;6.402;2023-03-12T15:19:17;21.58;;;5.47;;
68886;SDS011;55925;51.764;6.402;2023-03-12T15:21:45;22.60;;;4.15;;
68886;SDS011;55925;51.764;6.402;2023-03-12T15:24:11;15.48;;;4.50;;
68886;SDS011;55925;51.764;6.402;2023-03-12T15:26:38;18.58;;;3.45;;
68886;SDS011;55925;51.764;6.402;2023-03-12T15:29:23;16.33;;;3.60;;
68886;SDS011;55925;51.764;6.402;2023-03-12T15:31:52;17.55;;;3.95;;
68886;SDS011;55925;51.764;6.402;2023-03-12T15:36:56;16.40;;;4.40;;
68886;SDS011;55925;51.764;6.402;2023-03-12T15:39:26;14.43;;;3.92;;
68886;SDS011;55925;51.764;6.402;2023-03-12T15:41:54;18.17;;;4.40;;
68886;SDS011;55925;51.764;6.402;2023-03-12T15:44:24;22.83;;;3.80;;
68886;SDS011;55925;51.764;6.402;2023-03-12T15:46:52;16.25;;;3.78;;
68886;SDS011;55925;51.764;6.402;2023-03-12T15:49:54;23.83;;;4.25;;
68886;SDS011;55925;51.764;6.402;2023-03-12T15:57:28;17.33;;;3.72;;
68886;SDS011;55925;51.764;6.402;2023-03-12T16:00:06;22.40;;;5.10;;
68886;SDS011;55925;51.764;6.402;2023-03-12T16:02:36;18.30;;;3.83;;
68886;SDS011;55925;51.764;6.402;2023-03-12T16:05:02;23.92;;;4.75;;
68886;SDS011;55925;51.764;6.402;2023-03-12T16:07:28;20.95;;;4.50;;
68886;SDS011;55925;51.764;6.402;2023-03-12T16:09:54;15.57;;;4.18;;
68886;SDS011;55925;51.764;6.402;2023-03-12T16:12:21;12.15;;;3.95;;
68886;SDS011;55925;51.764;6.402;2023-03-12T16:14:47;22.50;;;5.05;;
68886;SDS011;55925;51.764;6.402;2023-03-12T16:17:13;20.13;;;4.20;;
68886;SDS011;55925;51.764;6.402;2023-03-12T16:19:43;23.95;;;4.80;;
68886;SDS011;55925;51.764;6.402;2023-03-12T16:22:09;19.05;;;4.28;;
68886;SDS011;55925;51.764;6.402;2023-03-12T16:24:35;17.55;;;4.65;;
68886;SDS011;55925;51.764;6.402;2023-03-12T16:27:01;25.30;;;5.05;;
68886;SDS011;55925;51.764;6.402;2023-03-12T16:29:32;18.55;;;4.90;;
68886;SDS011;55925;51.764;6.402;2023-03-12T16:31:58;22.80;;;4.63;;
68886;SDS011;55925;51.764;6.402;2023-03-12T16:34:25;24.73;;;4.90;;
68886;SDS011;55925;51.764;6.402;2023-03-12T16:36:51;22.70;;;5.93;;
68886;SDS011;55925;51.764;6.402;2023-03-12T16:39:18;23.65;;;5.22;;
68886;SDS011;55925;51.764;6.402;2023-03-12T16:41:44;22.27;;;4.95;;
68886;SDS011;55925;51.764;6.402;2023-03-12T16:44:13;26.90;;;4.63;;